sensor_id;sensor_type;location;lat;lon;timestamp;pressure;altitude;pressure_sealevel;temperature;humidity
55351;BME280;62194;49.480;10.986;2023-03-29T00:00:01;98731.50;;;4.09;57.33
55351;BME280;62194;49.480;10.986;2023-03-29T00:00:12;98693.97;;;3.88;57.67
55351;BME280;62194;49.480;10.986;2023-03-29T00:00:21;98719.59;;;4.10;57.51
55351;BME280;62194;49.480;10.986;2023-03-29T00:00:26;98718.63;;;4.01;57.86
55351;BME280;62194;49.480;10.986;2023-03-29T00:00:32;98702.28;;;3.92;57.48
55351;BME280;62194;49.480;10.986;2023-03-29T00:00:39;98697.97;;;3.91;56.97
55351;BME280;62194;49.480;10.986;2023-03-29T00:00:45;98730.38;;;4.10;56.87
55351;BME280;62194;49.480;10.986;2023-03-29T00:00:50;98703.09;;;3.92;56.92
55351;BME280;62194;49.480;10.986;2023-03-29T00:00:56;98725.56;;;4.07;56.50
55351;BME280;62194;49.480;10.986;2023-03-29T00:01:04;98705.50;;;3.94;56.66
55351;BME280;62194;49.480;10.986;2023-03-29T00:01:10;98725.22;;;4.13;56.92
55351;BME280;62194;49.480;10.986;2023-03-29T00:01:16;98711.78;;;4.08;57.35
55351;BME280;62194;49.480;10.986;2023-03-29T00:01:21;98706.69;;;4.07;60.10
55351;BME280;62194;49.480;10.986;2023-03-29T00:01:29;98705.56;;;4.08;60.86
55351;BME280;62194;49.480;10.986;2023-03-29T00:01:35;98724.91;;;4.15;59.66
55351;BME280;62194;49.480;10.986;2023-03-29T00:01:40;98727.03;;;4.18;59.18
55351;BME280;62194;49.480;10.986;2023-03-29T00:01:46;98728.94;;;4.17;59.21
55351;BME280;62194;49.480;10.986;2023-03-29T00:01:52;98702.97;;;4.03;60.93
55351;BME280;62194;49.480;10.986;2023-03-29T00:01:57;98723.84;;;4.16;60.60
55351;BME280;62194;49.480;10.986;2023-03-29T00:02:02;98718.72;;;4.14;58.75
55351;BME280;62194;49.480;10.986;2023-03-29T00:02:08;98692.00;;;3.94;57.65
55351;BME280;62194;49.480;10.986;2023-03-29T00:02:13;98696.81;;;3.97;57.44
55351;BME280;62194;49.480;10.986;2023-03-29T00:02:18;98731.72;;;4.12;57.80
55351;BME280;62194;49.480;10.986;2023-03-29T00:02:24;98730.09;;;4.11;57.23
55351;BME280;62194;49.480;10.986;2023-03-29T00:02:34;98706.50;;;3.98;57.28
55351;BME280;62194;49.480;10.986;2023-03-29T00:02:40;98721.78;;;4.08;57.30
55351;BME280;62194;49.480;10.986;2023-03-29T00:02:45;98695.50;;;3.94;57.25
55351;BME280;62194;49.480;10.986;2023-03-29T00:02:54;98708.38;;;4.03;59.03
55351;BME280;62194;49.480;10.986;2023-03-29T00:03:00;98706.69;;;4.07;57.72
55351;BME280;62194;49.480;10.986;2023-03-29T00:03:07;98723.25;;;4.19;57.66
55351;BME280;62194;49.480;10.986;2023-03-29T00:03:12;98709.03;;;4.13;57.02
55351;BME280;62194;49.480;10.986;2023-03-29T00:03:18;98687.56;;;4.03;57.09
55351;BME280;62194;49.480;10.986;2023-03-29T00:03:25;98707.44;;;4.12;57.34
55351;BME280;62194;49.480;10.986;2023-03-29T00:03:31;98714.56;;;4.22;57.26
55351;BME280;62194;49.480;10.986;2023-03-29T00:03:38;98706.38;;;4.08;57.05
55351;BME280;62194;49.480;10.986;2023-03-29T00:03:48;98702.38;;;4.06;57.46
55351;BME280;62194;49.480;10.986;2023-03-29T00:03:53;98708.72;;;4.15;57.26
55351;BME280;62194;49.480;10.986;2023-03-29T00:03:59;98727.56;;;4.20;57.53
55351;BME280;62194;49.480;10.986;2023-03-29T00:04:05;98724.84;;;4.20;59.09
55351;BME280;62194;49.480;10.986;2023-03-29T00:04:11;98719.81;;;4.13;58.88
55351;BME280;62194;49.480;10.986;2023-03-29T00:04:18;98692.75;;;3.99;58.35
55351;BME280;62194;49.480;10.986;2023-03-29T00:04:29;98714.19;;;4.10;58.82
55351;BME280;62194;49.480;10.986;2023-03-29T00:04:34;98677.56;;;3.85;57.78
55351;BME280;62194;49.480;10.986;2023-03-29T00:04:40;98678.28;;;3.90;57.88
55351;BME280;62194;49.480;10.986;2023-03-29T00:04:46;98689.09;;;3.90;57.88
55351;BME280;62194;49.480;10.986;2023-03-29T00:04:51;98722.72;;;4.17;57.97
55351;BME280;62194;49.480;10.986;2023-03-29T00:04:57;98723.03;;;4.15;58.09
55351;BME280;62194;49.480;10.986;2023-03-29T00:05:08;98704.03;;;4.02;57.77
55351;BME280;62194;49.480;10.986;2023-03-29T00:05:19;98721.50;;;4.09;58.18
55351;BME280;62194;49.480;10.986;2023-03-29T00:05:29;98722.50;;;4.13;57.26
55351;BME280;62194;49.480;10.986;2023-03-29T00:05:38;98731.72;;;4.12;56.70
55351;BME280;62194;49.480;10.986;2023-03-29T00:05:45;98729.81;;;4.13;56.68
55351;BME280;62194;49.480;10.986;2023-03-29T00:05:50;98689.38;;;3.89;56.62
55351;BME280;62194;49.480;10.986;2023-03-29T00:06:02;98725.56;;;4.07;56.76
55351;BME280;62194;49.480;10.986;2023-03-29T00:06:07;98733.88;;;4.10;56.61
55351;BME280;62194;49.480;10.986;2023-03-29T00:06:14;98728.78;;;4.09;56.97
55351;BME280;62194;49.480;10.986;2023-03-29T00:06:26;98690.19;;;3.89;56.91
55351;BME280;62194;49.480;10.986;2023-03-29T00:06:36;98688.66;;;3.83;56.57
55351;BME280;62194;49.480;10.986;2023-03-29T00:06:42;98696.38;;;3.90;56.74
55351;BME280;62194;49.480;10.986;2023-03-29T00:06:53;98705.81;;;3.92;57.05
55351;BME280;62194;49.480;10.986;2023-03-29T00:06:58;98720.75;;;4.04;57.01
55351;BME280;62194;49.480;10.986;2023-03-29T00:07:08;98708.63;;;4.01;57.40
55351;BME280;62194;49.480;10.986;2023-03-29T00:07:13;98713.81;;;3.97;57.42
55351;BME280;62194;49.480;10.986;2023-03-29T00:07:19;98716.94;;;4.05;57.30
55351;BME280;62194;49.480;10.986;2023-03-29T00:07:28;98723.63;;;4.12;57.60
55351;BME280;62194;49.480;10.986;2023-03-29T00:07:37;98723.41;;;4.09;57.41
55351;BME280;62194;49.480;10.986;2023-03-29T00:07:43;98704.84;;;4.02;57.33
55351;BME280;62194;49.480;10.986;2023-03-29T00:07:48;98684.78;;;3.89;57.48
55351;BME280;62194;49.480;10.986;2023-03-29T00:08:07;98717.13;;;4.13;57.16
55351;BME280;62194;49.480;10.986;2023-03-29T00:08:12;98705.94;;;4.01;57.05
55351;BME280;62194;49.480;10.986;2023-03-29T00:08:18;98729.81;;;4.13;57.49
55351;BME280;62194;49.480;10.986;2023-03-29T00:08:26;98722.78;;;4.12;57.31
55351;BME280;62194;49.480;10.986;2023-03-29T00:08:32;98711.28;;;4.06;57.17
55351;BME280;62194;49.480;10.986;2023-03-29T00:08:42;98717.16;;;4.08;57.41
55351;BME280;62194;49.480;10.986;2023-03-29T00:08:50;98699.22;;;3.98;57.46
55351;BME280;62194;49.480;10.986;2023-03-29T00:08:58;98706.50;;;3.98;57.28
55351;BME280;62194;49.480;10.986;2023-03-29T00:09:04;98685.94;;;3.83;57.24
55351;BME280;62194;49.480;10.986;2023-03-29T00:09:10;98727.13;;;4.13;57.21
55351;BME280;62194;49.480;10.986;2023-03-29T00:09:15;98708.94;;;3.99;56.82
55351;BME280;62194;49.480;10.986;2023-03-29T00:09:22;98711.13;;;3.97;56.93
55351;BME280;62194;49.480;10.986;2023-03-29T00:09:31;98717.25;;;4.03;56.62
55351;BME280;62194;49.480;10.986;2023-03-29T00:09:37;98717.25;;;4.03;56.88
55351;BME280;62194;49.480;10.986;2023-03-29T00:09:42;98728.50;;;4.10;56.91
55351;BME280;62194;49.480;10.986;2023-03-29T00:09:48;98722.88;;;4.07;57.27
55351;BME280;62194;49.480;10.986;2023-03-29T00:09:53;98700.53;;;4.01;57.56
55351;BME280;62194;49.480;10.986;2023-03-29T00:09:59;98703.59;;;3.94;57.42
55351;BME280;62194;49.480;10.986;2023-03-29T00:10:06;98701.66;;;4.00;57.28
55351;BME280;62194;49.480;10.986;2023-03-29T00:10:12;98715.34;;;4.04;56.86
55351;BME280;62194;49.480;10.986;2023-03-29T00:10:17;98697.19;;;3.90;56.89
55351;BME280;62194;49.480;10.986;2023-03-29T00:10:23;98693.69;;;3.90;57.35
55351;BME280;62194;49.480;10.986;2023-03-29T00:10:30;98721.19;;;4.11;57.05
55351;BME280;62194;49.480;10.986;2023-03-29T00:10:36;98734.69;;;4.11;57.12
55351;BME280;62194;49.480;10.986;2023-03-29T00:10:42;98723.41;;;4.09;57.42
55351;BME280;62194;49.480;10.986;2023-03-29T00:10:48;98735.47;;;4.11;57.48
55351;BME280;62194;49.480;10.986;2023-03-29T00:10:54;98710.00;;;3.98;57.76
55351;BME280;62194;49.480;10.986;2023-03-29T00:11:01;98695.22;;;3.96;57.62
55351;BME280;62194;49.480;10.986;2023-03-29T00:11:07;98670.63;;;3.79;58.55
55351;BME280;62194;49.480;10.986;2023-03-29T00:11:12;98691.22;;;3.93;58.44
55351;BME280;62194;49.480;10.986;2023-03-29T00:11:17;98729.28;;;4.11;57.98
55351;BME280;62194;49.480;10.986;2023-03-29T00:11:23;98728.19;;;4.12;58.26
55351;BME280;62194;49.480;10.986;2023-03-29T00:11:29;98685.88;;;3.88;57.80
55351;BME280;62194;49.480;10.986;2023-03-29T00:11:35;98727.38;;;4.11;58.06
55351;BME280;62194;49.480;10.986;2023-03-29T00:11:41;98729.28;;;4.11;58.03
55351;BME280;62194;49.480;10.986;2023-03-29T00:11:46;98707.09;;;3.95;57.95
55351;BME280;62194;49.480;10.986;2023-03-29T00:11:51;98700.91;;;3.94;57.48
55351;BME280;62194;49.480;10.986;2023-03-29T00:11:57;98720.44;;;4.05;57.52
55351;BME280;62194;49.480;10.986;2023-03-29T00:12:02;98725.78;;;4.10;57.21
55351;BME280;62194;49.480;10.986;2023-03-29T00:12:08;98732.28;;;4.09;57.23
55351;BME280;62194;49.480;10.986;2023-03-29T00:12:15;98714.34;;;3.99;57.40
55351;BME280;62194;49.480;10.986;2023-03-29T00:12:20;98727.47;;;4.06;57.10
55351;BME280;62194;49.480;10.986;2023-03-29T00:12:26;98728.78;;;4.09;57.24
55351;BME280;62194;49.480;10.986;2023-03-29T00:12:31;98722.94;;;4.02;57.28
55351;BME280;62194;49.480;10.986;2023-03-29T00:12:38;98703.94;;;3.88;57.16
55351;BME280;62194;49.480;10.986;2023-03-29T00:12:43;98726.16;;;4.04;56.95
55351;BME280;62194;49.480;10.986;2023-03-29T00:12:49;98724.47;;;4.08;56.79
55351;BME280;62194;49.480;10.986;2023-03-29T00:12:57;98703.69;;;3.89;56.97
55351;BME280;62194;49.480;10.986;2023-03-29T00:13:02;98707.19;;;3.90;57.18
55351;BME280;62194;49.480;10.986;2023-03-29T00:13:08;98705.81;;;3.92;57.34
55351;BME280;62194;49.480;10.986;2023-03-29T00:13:13;98736.88;;;4.09;57.60
55351;BME280;62194;49.480;10.986;2023-03-29T00:13:18;98705.81;;;3.92;57.76
55351;BME280;62194;49.480;10.986;2023-03-29T00:13:24;98694.25;;;3.87;57.89
55351;BME280;62194;49.480;10.986;2023-03-29T00:13:30;98715.41;;;3.98;57.79
55351;BME280;62194;49.480;10.986;2023-03-29T00:13:35;98730.66;;;4.08;57.19
55351;BME280;62194;49.480;10.986;2023-03-29T00:13:42;98703.94;;;3.88;57.37
55351;BME280;62194;49.480;10.986;2023-03-29T00:13:48;98732.56;;;4.08;57.37
55351;BME280;62194;49.480;10.986;2023-03-29T00:13:54;98713.00;;;3.97;57.52
55351;BME280;62194;49.480;10.986;2023-03-29T00:13:59;98734.47;;;4.07;57.64
55351;BME280;62194;49.480;10.986;2023-03-29T00:14:05;98731.03;;;4.02;57.39
55351;BME280;62194;49.480;10.986;2023-03-29T00:14:11;98732.88;;;4.06;57.10
55351;BME280;62194;49.480;10.986;2023-03-29T00:14:16;98689.72;;;3.82;57.18
55351;BME280;62194;49.480;10.986;2023-03-29T00:14:22;98731.81;;;4.02;57.14
55351;BME280;62194;49.480;10.986;2023-03-29T00:14:28;98732.56;;;4.08;57.13
55351;BME280;62194;49.480;10.986;2023-03-29T00:14:34;98741.75;;;4.07;57.34
55351;BME280;62194;49.480;10.986;2023-03-29T00:14:39;98734.47;;;4.07;57.49
55351;BME280;62194;49.480;10.986;2023-03-29T00:14:45;98735.56;;;4.06;57.24
55351;BME280;62194;49.480;10.986;2023-03-29T00:14:50;98708.56;;;3.87;57.24
55351;BME280;62194;49.480;10.986;2023-03-29T00:14:56;98717.66;;;3.91;57.35
55351;BME280;62194;49.480;10.986;2023-03-29T00:15:02;98738.75;;;4.08;57.07
55351;BME280;62194;49.480;10.986;2023-03-29T00:15:08;98732.56;;;4.08;57.11
55351;BME280;62194;49.480;10.986;2023-03-29T00:15:13;98720.53;;;4.00;56.84
55351;BME280;62194;49.480;10.986;2023-03-29T00:15:19;98728.53;;;4.05;57.29
55351;BME280;62194;49.480;10.986;2023-03-29T00:15:24;98734.75;;;4.06;57.14
55351;BME280;62194;49.480;10.986;2023-03-29T00:15:30;98719.78;;;3.94;57.17
55351;BME280;62194;49.480;10.986;2023-03-29T00:15:35;98710.88;;;3.94;57.20
55351;BME280;62194;49.480;10.986;2023-03-29T00:15:41;98735.56;;;4.06;57.50
55351;BME280;62194;49.480;10.986;2023-03-29T00:15:46;98737.47;;;4.06;57.19
55351;BME280;62194;49.480;10.986;2023-03-29T00:15:53;98726.41;;;4.02;57.33
55351;BME280;62194;49.480;10.986;2023-03-29T00:15:58;98707.19;;;3.90;57.25
55351;BME280;62194;49.480;10.986;2023-03-29T00:16:03;98709.88;;;3.90;57.57
55351;BME280;62194;49.480;10.986;2023-03-29T00:16:09;98727.47;;;4.06;57.63
55351;BME280;62194;49.480;10.986;2023-03-29T00:16:14;98699.09;;;3.90;58.00
55351;BME280;62194;49.480;10.986;2023-03-29T00:16:20;98735.00;;;4.09;57.94
55351;BME280;62194;49.480;10.986;2023-03-29T00:16:25;98715.94;;;4.01;57.55
55351;BME280;62194;49.480;10.986;2023-03-29T00:16:31;98697.81;;;3.82;57.90
55351;BME280;62194;49.480;10.986;2023-03-29T00:16:36;98701.78;;;3.90;57.84
55351;BME280;62194;49.480;10.986;2023-03-29T00:16:42;98713.06;;;3.92;58.12
55351;BME280;62194;49.480;10.986;2023-03-29T00:16:48;98727.25;;;4.03;57.69
55351;BME280;62194;49.480;10.986;2023-03-29T00:16:54;98695.94;;;3.83;57.78
55351;BME280;62194;49.480;10.986;2023-03-29T00:16:59;98730.66;;;4.08;57.89
55351;BME280;62194;49.480;10.986;2023-03-29T00:17:04;98724.78;;;4.06;58.41
55351;BME280;62194;49.480;10.986;2023-03-29T00:17:10;98721.03;;;4.02;58.19
55351;BME280;62194;49.480;10.986;2023-03-29T00:17:15;98712.50;;;3.95;58.12
55351;BME280;62194;49.480;10.986;2023-03-29T00:17:21;98696.97;;;3.87;57.80
55351;BME280;62194;49.480;10.986;2023-03-29T00:17:27;98731.75;;;4.07;57.98
55351;BME280;62194;49.480;10.986;2023-03-29T00:17:32;98710.09;;;3.93;57.62
55351;BME280;62194;49.480;10.986;2023-03-29T00:17:38;98714.59;;;3.98;57.70
55351;BME280;62194;49.480;10.986;2023-03-29T00:17:43;98720.00;;;3.98;57.84
55351;BME280;62194;49.480;10.986;2023-03-29T00:17:49;98699.88;;;3.90;58.57
55351;BME280;62194;49.480;10.986;2023-03-29T00:17:54;98733.09;;;4.10;58.57
55351;BME280;62194;49.480;10.986;2023-03-29T00:18:00;98698.28;;;3.89;58.34
55351;BME280;62194;49.480;10.986;2023-03-29T00:18:05;98728.19;;;4.12;58.50
55351;BME280;62194;49.480;10.986;2023-03-29T00:18:10;98705.13;;;4.01;58.16
55351;BME280;62194;49.480;10.986;2023-03-29T00:18:15;98699.00;;;3.95;58.32
55351;BME280;62194;49.480;10.986;2023-03-29T00:18:21;98731.72;;;4.12;57.83
55351;BME280;62194;49.480;10.986;2023-03-29T00:18:27;98720.34;;;4.15;58.02
55351;BME280;62194;49.480;10.986;2023-03-29T00:18:32;98698.41;;;3.98;58.55
55351;BME280;62194;49.480;10.986;2023-03-29T00:18:38;98724.09;;;4.14;58.63
55351;BME280;62194;49.480;10.986;2023-03-29T00:18:43;98699.31;;;3.93;58.39
55351;BME280;62194;49.480;10.986;2023-03-29T00:18:49;98722.22;;;4.15;58.13
55351;BME280;62194;49.480;10.986;2023-03-29T00:18:54;98701.19;;;3.93;58.03
55351;BME280;62194;49.480;10.986;2023-03-29T00:18:59;98712.81;;;4.12;58.40
55351;BME280;62194;49.480;10.986;2023-03-29T00:19:05;98723.03;;;4.15;58.19
55351;BME280;62194;49.480;10.986;2023-03-29T00:19:10;98713.31;;;4.14;58.07
55351;BME280;62194;49.480;10.986;2023-03-29T00:19:15;98716.00;;;4.14;58.17
55351;BME280;62194;49.480;10.986;2023-03-29T00:19:21;98679.03;;;3.96;58.41
55351;BME280;62194;49.480;10.986;2023-03-29T00:19:26;98726.16;;;4.22;57.94
55351;BME280;62194;49.480;10.986;2023-03-29T00:19:33;98691.13;;;3.98;58.00
55351;BME280;62194;49.480;10.986;2023-03-29T00:19:43;98731.56;;;4.22;58.12
55351;BME280;62194;49.480;10.986;2023-03-29T00:19:48;98718.44;;;4.16;58.06
55351;BME280;62194;49.480;10.986;2023-03-29T00:19:53;98681.44;;;3.97;57.50
55351;BME280;62194;49.480;10.986;2023-03-29T00:19:59;98720.56;;;4.19;57.58
55351;BME280;62194;49.480;10.986;2023-03-29T00:20:05;98711.41;;;4.15;57.61
55351;BME280;62194;49.480;10.986;2023-03-29T00:20:14;98691.88;;;4.04;57.87
55351;BME280;62194;49.480;10.986;2023-03-29T00:20:20;98675.88;;;3.89;58.03
55351;BME280;62194;49.480;10.986;2023-03-29T00:20:26;98724.53;;;4.21;58.15
55351;BME280;62194;49.480;10.986;2023-03-29T00:20:32;98693.41;;;4.10;60.52
55351;BME280;62194;49.480;10.986;2023-03-29T00:20:38;98722.69;;;4.22;60.52
55351;BME280;62194;49.480;10.986;2023-03-29T00:20:43;98728.78;;;4.28;59.91
55351;BME280;62194;49.480;10.986;2023-03-29T00:20:58;98721.72;;;4.32;59.12
55351;BME280;62194;49.480;10.986;2023-03-29T00:21:04;98692.03;;;4.13;59.27
55351;BME280;62194;49.480;10.986;2023-03-29T00:21:09;98701.56;;;4.24;59.54
55351;BME280;62194;49.480;10.986;2023-03-29T00:21:15;98697.06;;;4.19;59.22
55351;BME280;62194;49.480;10.986;2023-03-29T00:21:20;98694.63;;;4.18;58.75
55351;BME280;62194;49.480;10.986;2023-03-29T00:21:25;98722.44;;;4.37;58.43
55351;BME280;62194;49.480;10.986;2023-03-29T00:21:31;98712.00;;;4.31;57.85
55351;BME280;62194;49.480;10.986;2023-03-29T00:21:36;98722.16;;;4.39;57.74
55351;BME280;62194;49.480;10.986;2023-03-29T00:21:41;98714.44;;;4.32;57.72
55351;BME280;62194;49.480;10.986;2023-03-29T00:21:47;98698.88;;;4.24;57.63
55351;BME280;62194;49.480;10.986;2023-03-29T00:21:52;98727.03;;;4.37;57.83
55351;BME280;62194;49.480;10.986;2023-03-29T00:21:57;98714.91;;;4.34;58.18
55351;BME280;62194;49.480;10.986;2023-03-29T00:22:03;98721.13;;;4.35;57.93
55351;BME280;62194;49.480;10.986;2023-03-29T00:22:11;98721.94;;;4.35;57.84
55351;BME280;62194;49.480;10.986;2023-03-29T00:22:17;98693.84;;;4.17;58.35
55351;BME280;62194;49.480;10.986;2023-03-29T00:22:23;98699.19;;;4.22;58.42
55351;BME280;62194;49.480;10.986;2023-03-29T00:22:28;98703.91;;;4.31;58.24
55351;BME280;62194;49.480;10.986;2023-03-29T00:22:33;98704.28;;;4.24;57.95
55351;BME280;62194;49.480;10.986;2023-03-29T00:22:39;98693.84;;;4.17;58.00
55351;BME280;62194;49.480;10.986;2023-03-29T00:22:46;98727.13;;;4.32;58.20
55351;BME280;62194;49.480;10.986;2023-03-29T00:22:51;98695.75;;;4.17;58.38
55351;BME280;62194;49.480;10.986;2023-03-29T00:22:56;98707.28;;;4.22;58.22
55351;BME280;62194;49.480;10.986;2023-03-29T00:23:01;98693.09;;;4.12;58.44
55351;BME280;62194;49.480;10.986;2023-03-29T00:23:07;98701.72;;;4.14;57.99
55351;BME280;62194;49.480;10.986;2023-03-29T00:23:12;98724.50;;;4.27;58.01
55351;BME280;62194;49.480;10.986;2023-03-29T00:23:17;98688.06;;;4.05;57.74
55351;BME280;62194;49.480;10.986;2023-03-29T00:23:23;98688.94;;;4.01;58.04
55351;BME280;62194;49.480;10.986;2023-03-29T00:23:29;98702.03;;;4.12;58.35
55351;BME280;62194;49.480;10.986;2023-03-29T00:23:34;98729.66;;;4.23;58.41
55351;BME280;62194;49.480;10.986;2023-03-29T00:23:40;98692.97;;;4.03;58.40
55351;BME280;62194;49.480;10.986;2023-03-29T00:23:45;98722.16;;;4.20;58.77
55351;BME280;62194;49.480;10.986;2023-03-29T00:23:50;98685.69;;;4.04;58.30
55351;BME280;62194;49.480;10.986;2023-03-29T00:23:56;98684.06;;;4.03;58.62
55351;BME280;62194;49.480;10.986;2023-03-29T00:24:01;98694.50;;;4.09;59.47
55351;BME280;62194;49.480;10.986;2023-03-29T00:24:06;98695.31;;;4.10;59.14
55351;BME280;62194;49.480;10.986;2023-03-29T00:24:12;98677.84;;;4.02;58.99
55351;BME280;62194;49.480;10.986;2023-03-29T00:24:17;98674.13;;;3.98;58.97
55351;BME280;62194;49.480;10.986;2023-03-29T00:24:22;98678.38;;;4.04;58.87
55351;BME280;62194;49.480;10.986;2023-03-29T00:24:28;98696.84;;;4.16;58.68
55351;BME280;62194;49.480;10.986;2023-03-29T00:24:33;98703.78;;;4.22;58.57
55351;BME280;62194;49.480;10.986;2023-03-29T00:24:39;98711.22;;;4.30;58.56
55351;BME280;62194;49.480;10.986;2023-03-29T00:24:44;98714.72;;;4.31;58.33
55351;BME280;62194;49.480;10.986;2023-03-29T00:24:52;98715.00;;;4.29;58.29
55351;BME280;62194;49.480;10.986;2023-03-29T00:24:58;98680.50;;;4.07;58.10
55351;BME280;62194;49.480;10.986;2023-03-29T00:25:03;98701.13;;;4.17;58.57
55351;BME280;62194;49.480;10.986;2023-03-29T00:25:10;98720.41;;;4.29;58.21
55351;BME280;62194;49.480;10.986;2023-03-29T00:25:15;98714.50;;;4.27;58.28
55351;BME280;62194;49.480;10.986;2023-03-29T00:25:21;98710.19;;;4.26;58.48
55351;BME280;62194;49.480;10.986;2023-03-29T00:25:26;98724.91;;;4.34;58.56
55351;BME280;62194;49.480;10.986;2023-03-29T00:25:31;98697.81;;;4.25;58.30
55351;BME280;62194;49.480;10.986;2023-03-29T00:25:37;98679.59;;;4.12;58.59
55351;BME280;62194;49.480;10.986;2023-03-29T00:25:45;98692.25;;;4.16;58.54
55351;BME280;62194;49.480;10.986;2023-03-29T00:25:54;98717.94;;;4.33;58.21
55351;BME280;62194;49.480;10.986;2023-03-29T00:26:00;98713.63;;;4.32;58.48
55351;BME280;62194;49.480;10.986;2023-03-29T00:26:05;98671.66;;;4.02;58.63
55351;BME280;62194;49.480;10.986;2023-03-29T00:26:11;98689.81;;;4.15;58.60
55351;BME280;62194;49.480;10.986;2023-03-29T00:26:16;98689.34;;;4.13;58.63
55351;BME280;62194;49.480;10.986;2023-03-29T00:26:22;98709.88;;;4.28;58.61
55351;BME280;62194;49.480;10.986;2023-03-29T00:26:27;98703.25;;;4.20;58.80
55351;BME280;62194;49.480;10.986;2023-03-29T00:26:32;98710.47;;;4.25;58.55
55351;BME280;62194;49.480;10.986;2023-03-29T00:26:37;98716.09;;;4.28;58.79
55351;BME280;62194;49.480;10.986;2023-03-29T00:26:43;98692.53;;;4.15;58.83
55351;BME280;62194;49.480;10.986;2023-03-29T00:26:48;98691.22;;;4.12;58.83
55351;BME280;62194;49.480;10.986;2023-03-29T00:26:53;98696.03;;;4.15;58.67
55351;BME280;62194;49.480;10.986;2023-03-29T00:26:59;98682.09;;;4.08;59.00
55351;BME280;62194;49.480;10.986;2023-03-29T00:27:05;98674.88;;;4.04;59.21
55351;BME280;62194;49.480;10.986;2023-03-29T00:27:10;98685.88;;;4.07;58.68
55351;BME280;62194;49.480;10.986;2023-03-29T00:27:15;98666.94;;;3.93;58.81
55351;BME280;62194;49.480;10.986;2023-03-29T00:27:21;98682.09;;;4.08;58.78
55351;BME280;62194;49.480;10.986;2023-03-29T00:27:26;98686.09;;;4.11;59.12
55351;BME280;62194;49.480;10.986;2023-03-29T00:27:32;98685.31;;;4.10;58.73
55351;BME280;62194;49.480;10.986;2023-03-29T00:27:38;98681.28;;;4.08;58.84
55351;BME280;62194;49.480;10.986;2023-03-29T00:27:43;98677.78;;;4.07;58.93
55351;BME280;62194;49.480;10.986;2023-03-29T00:27:49;98675.91;;;4.08;58.91
55351;BME280;62194;49.480;10.986;2023-03-29T00:27:54;98686.09;;;4.11;58.81
55351;BME280;62194;49.480;10.986;2023-03-29T00:27:59;98682.91;;;4.09;58.75
55351;BME280;62194;49.480;10.986;2023-03-29T00:28:05;98699.25;;;4.17;59.09
55351;BME280;62194;49.480;10.986;2023-03-29T00:28:10;98693.34;;;4.15;58.96
55351;BME280;62194;49.480;10.986;2023-03-29T00:28:17;98675.69;;;4.04;58.86
55351;BME280;62194;49.480;10.986;2023-03-29T00:28:23;98696.84;;;4.16;59.11
55351;BME280;62194;49.480;10.986;2023-03-29T00:28:28;98696.31;;;4.14;59.50
55351;BME280;62194;49.480;10.986;2023-03-29T00:28:34;98711.56;;;4.23;59.43
55351;BME280;62194;49.480;10.986;2023-03-29T00:28:39;98691.94;;;4.18;59.37
55351;BME280;62194;49.480;10.986;2023-03-29T00:28:44;98682.31;;;4.12;59.43
55351;BME280;62194;49.480;10.986;2023-03-29T00:28:50;98678.22;;;4.14;58.87
55351;BME280;62194;49.480;10.986;2023-03-29T00:28:55;98678.16;;;4.19;59.18
55351;BME280;62194;49.480;10.986;2023-03-29T00:29:01;98707.28;;;4.41;59.40
55351;BME280;62194;49.480;10.986;2023-03-29T00:29:06;98685.53;;;4.33;59.23
55351;BME280;62194;49.480;10.986;2023-03-29T00:29:11;98709.38;;;4.44;59.42
55351;BME280;62194;49.480;10.986;2023-03-29T00:29:16;98703.38;;;4.47;58.84
55351;BME280;62194;49.480;10.986;2023-03-29T00:29:22;98687.91;;;4.34;58.86
55351;BME280;62194;49.480;10.986;2023-03-29T00:29:27;98692.16;;;4.40;58.83
55351;BME280;62194;49.480;10.986;2023-03-29T00:29:33;98702.09;;;4.45;58.82
55351;BME280;62194;49.480;10.986;2023-03-29T00:29:38;98703.16;;;4.44;59.13
55351;BME280;62194;49.480;10.986;2023-03-29T00:29:43;98676.22;;;4.25;58.78
55351;BME280;62194;49.480;10.986;2023-03-29T00:29:49;98682.09;;;4.27;59.01
55351;BME280;62194;49.480;10.986;2023-03-29T00:29:54;98672.78;;;4.19;59.08
55351;BME280;62194;49.480;10.986;2023-03-29T00:30:00;98672.47;;;4.21;58.72
55351;BME280;62194;49.480;10.986;2023-03-29T00:30:09;98677.66;;;4.17;58.70
55351;BME280;62194;49.480;10.986;2023-03-29T00:30:15;98683.47;;;4.25;58.91
55351;BME280;62194;49.480;10.986;2023-03-29T00:30:21;98674.16;;;4.17;58.99
55351;BME280;62194;49.480;10.986;2023-03-29T00:30:26;98693.09;;;4.31;58.84
55351;BME280;62194;49.480;10.986;2023-03-29T00:30:32;98674.66;;;4.19;58.79
55351;BME280;62194;49.480;10.986;2023-03-29T00:30:37;98683.78;;;4.23;58.95
55351;BME280;62194;49.480;10.986;2023-03-29T00:30:42;98693.09;;;4.31;58.87
55351;BME280;62194;49.480;10.986;2023-03-29T00:30:48;98688.59;;;4.26;58.98
55351;BME280;62194;49.480;10.986;2023-03-29T00:31:03;98679.97;;;4.24;59.00
55351;BME280;62194;49.480;10.986;2023-03-29T00:31:12;98689.09;;;4.28;59.37
55351;BME280;62194;49.480;10.986;2023-03-29T00:31:17;98705.44;;;4.37;59.49
55351;BME280;62194;49.480;10.986;2023-03-29T00:31:23;98705.22;;;4.33;59.16
55351;BME280;62194;49.480;10.986;2023-03-29T00:31:28;98701.16;;;4.36;59.17
55351;BME280;62194;49.480;10.986;2023-03-29T00:31:33;98674.16;;;4.17;59.50
55351;BME280;62194;49.480;10.986;2023-03-29T00:31:39;98706.03;;;4.34;59.58
55351;BME280;62194;49.480;10.986;2023-03-29T00:31:44;98664.25;;;4.12;59.45
55351;BME280;62194;49.480;10.986;2023-03-29T00:31:55;98688.06;;;4.24;59.36
55351;BME280;62194;49.480;10.986;2023-03-29T00:32:01;98673.03;;;4.18;59.35
55351;BME280;62194;49.480;10.986;2023-03-29T00:32:06;98678.91;;;4.25;59.61
55351;BME280;62194;49.480;10.986;2023-03-29T00:32:13;98693.31;;;4.34;59.41
55351;BME280;62194;49.480;10.986;2023-03-29T00:32:18;98697.66;;;4.35;59.65
55351;BME280;62194;49.480;10.986;2023-03-29T00:32:24;98691.78;;;4.28;59.76